createdAt,value
2023-01-13T00:01:13.024Z,8.20
2023-01-13T00:03:40.282Z,11.40
2023-01-13T00:06:08.159Z,14.10
2023-01-13T00:08:36.032Z,14.40
2023-01-13T00:11:03.078Z,9.90
2023-01-13T00:13:31.982Z,15.80
2023-01-13T00:16:03.868Z,12.00
2023-01-13T00:18:30.989Z,17.10
2023-01-13T00:21:18.925Z,15.10
2023-01-13T00:23:46.578Z,14.20
2023-01-13T00:26:19.203Z,10.60
2023-01-13T00:28:46.523Z,15.60
2023-01-13T00:31:16.259Z,15.60
2023-01-13T00:33:43.401Z,14.90
2023-01-13T00:36:13.285Z,13.30
2023-01-13T00:38:40.364Z,14.40
2023-01-13T00:41:12.242Z,13.60
2023-01-13T00:43:39.591Z,15.30
2023-01-13T00:46:07.708Z,14.90
2023-01-13T00:48:35.250Z,10.90
2023-01-13T00:51:04.940Z,19.00
2023-01-13T00:53:36.898Z,12.50
2023-01-13T00:56:39.293Z,11.30
2023-01-13T00:59:10.208Z,12.80
2023-01-13T01:01:37.414Z,9.40
2023-01-13T01:04:04.820Z,11.10
2023-01-13T01:06:31.872Z,15.00
2023-01-13T01:08:58.824Z,14.50
2023-01-13T01:11:28.232Z,11.00
2023-01-13T01:13:56.332Z,10.70
2023-01-13T01:16:24.646Z,13.10
2023-01-13T01:18:52.534Z,9.50
2023-01-13T01:21:19.615Z,13.10
2023-01-13T01:23:46.660Z,10.20
2023-01-13T01:26:18.940Z,10.10
2023-01-13T01:28:46.198Z,14.10
2023-01-13T01:31:15.036Z,17.70
2023-01-13T01:33:42.240Z,15.80
2023-01-13T01:36:10.331Z,17.60
2023-01-13T01:38:37.889Z,17.60
2023-01-13T01:41:05.045Z,18.40
2023-01-13T01:44:04.057Z,13.10
2023-01-13T01:46:41.038Z,11.60
2023-01-13T01:49:26.674Z,18.30
2023-01-13T01:52:01.119Z,14.80
2023-01-13T01:54:49.539Z,11.60
2023-01-13T01:57:20.083Z,27.20
2023-01-13T01:59:47.128Z,17.40
2023-01-13T02:02:14.461Z,13.70
2023-01-13T02:04:51.007Z,15.60
2023-01-13T02:07:22.937Z,13.20
2023-01-13T02:09:49.971Z,13.40
2023-01-13T02:12:32.673Z,13.40
2023-01-13T02:15:11.701Z,16.90
2023-01-13T02:18:01.069Z,15.60
2023-01-13T02:20:52.488Z,17.70
2023-01-13T02:23:55.953Z,11.80
2023-01-13T02:27:00.874Z,13.80
2023-01-13T02:30:08.556Z,25.00
2023-01-13T02:32:51.054Z,17.00
2023-01-13T02:35:30.493Z,17.10
2023-01-13T02:37:57.547Z,13.50
2023-01-13T02:40:36.473Z,16.40
2023-01-13T02:43:31.865Z,10.50
2023-01-13T02:46:19.217Z,13.90
2023-01-13T02:48:46.337Z,10.70
2023-01-13T02:51:15.538Z,20.60
2023-01-13T02:53:52.617Z,12.00
2023-01-13T02:56:19.669Z,16.90
2023-01-13T02:58:46.722Z,21.80
2023-01-13T03:01:13.772Z,16.80
2023-01-13T03:03:40.817Z,17.40
2023-01-13T03:06:16.892Z,17.80
2023-01-13T03:08:55.224Z,17.90
2023-01-13T03:11:22.167Z,14.10
2023-01-13T03:14:04.665Z,24.70
2023-01-13T03:16:59.745Z,17.20
2023-01-13T03:20:08.127Z,20.70
2023-01-13T03:22:37.642Z,16.10
2023-01-13T03:25:13.594Z,20.00
2023-01-13T03:27:52.620Z,13.70
2023-01-13T03:30:21.669Z,22.60
2023-01-13T03:32:50.506Z,13.60
2023-01-13T03:35:32.594Z,19.70
2023-01-13T03:38:03.409Z,29.40
2023-01-13T03:40:33.527Z,17.50
2023-01-13T03:43:21.606Z,15.70
2023-01-13T03:45:50.689Z,19.10
2023-01-13T03:48:18.373Z,19.60
2023-01-13T03:50:48.449Z,17.90
2023-01-13T03:53:20.675Z,22.10
2023-01-13T03:55:50.068Z,16.50
2023-01-13T03:58:27.191Z,18.20
2023-01-13T04:01:22.335Z,25.60
2023-01-13T04:03:54.942Z,17.30
2023-01-13T04:06:48.559Z,20.90
2023-01-13T04:09:21.060Z,23.80
2023-01-13T04:11:52.358Z,17.80
2023-01-13T04:14:19.756Z,29.30
2023-01-13T04:16:47.844Z,15.10
2023-01-13T04:19:14.898Z,14.70
2023-01-13T04:21:41.823Z,21.90
2023-01-13T04:24:09.106Z,19.20
2023-01-13T04:26:36.019Z,14.20
2023-01-13T04:29:03.007Z,21.40
2023-01-13T04:31:29.955Z,12.40
2023-01-13T04:33:56.902Z,24.30
2023-01-13T04:36:27.844Z,23.80
2023-01-13T04:38:55.110Z,17.20
2023-01-13T04:41:21.976Z,16.20
2023-01-13T04:43:49.005Z,17.50
2023-01-13T04:46:15.952Z,22.80
2023-01-13T04:48:43.010Z,15.00
2023-01-13T04:51:09.856Z,20.30
2023-01-13T04:53:36.808Z,16.70
2023-01-13T04:56:03.763Z,15.60
2023-01-13T04:58:30.707Z,17.40
2023-01-13T05:00:57.731Z,18.40
2023-01-13T05:03:26.793Z,16.90
2023-01-13T05:05:53.819Z,16.60
2023-01-13T05:08:20.766Z,27.30
2023-01-13T05:10:47.710Z,21.00
2023-01-13T05:13:33.388Z,13.30
2023-01-13T05:16:23.963Z,18.90
2023-01-13T05:18:50.935Z,17.50
2023-01-13T05:21:36.703Z,18.70
2023-01-13T05:24:22.491Z,26.30
2023-01-13T05:26:49.349Z,28.70
2023-01-13T05:29:16.245Z,27.20
2023-01-13T05:31:43.195Z,30.10
2023-01-13T05:34:10.186Z,23.10
2023-01-13T05:36:37.115Z,29.50
2023-01-13T05:39:05.520Z,23.60
2023-01-13T05:41:51.300Z,20.50
2023-01-13T05:44:18.250Z,19.30
2023-01-13T05:46:45.181Z,69.30
2023-01-13T05:49:12.229Z,25.60
2023-01-13T05:51:39.205Z,19.80
2023-01-13T05:54:06.154Z,30.00
2023-01-13T05:56:33.763Z,16.90
2023-01-13T05:59:00.666Z,104.40
2023-01-13T06:01:27.798Z,34.60
2023-01-13T06:03:54.780Z,28.30
2023-01-13T06:06:21.963Z,29.90
2023-01-13T06:08:49.000Z,22.00
2023-01-13T06:11:16.043Z,25.50
2023-01-13T06:13:43.095Z,45.70
2023-01-13T06:16:10.293Z,30.40
2023-01-13T06:18:37.296Z,26.20
2023-01-13T06:21:05.071Z,28.70
2023-01-13T06:23:35.113Z,21.50
2023-01-13T06:26:15.680Z,19.40
2023-01-13T14:04:21.447Z,16.60
2023-01-13T14:06:53.461Z,13.80
2023-01-13T14:09:20.591Z,11.90
2023-01-13T14:12:06.092Z,12.50
2023-01-13T14:14:32.982Z,13.90
2023-01-13T14:17:02.691Z,14.00
2023-01-13T14:19:34.624Z,17.80
2023-01-13T14:22:04.167Z,14.20
2023-01-13T14:24:31.210Z,19.20
2023-01-13T14:27:14.916Z,17.90
2023-01-13T14:29:41.683Z,11.30
2023-01-13T14:32:10.267Z,18.20
2023-01-13T14:34:37.175Z,14.80
2023-01-13T14:37:25.717Z,19.50
2023-01-13T14:39:54.809Z,15.10
2023-01-13T14:42:23.131Z,15.00
2023-01-13T14:44:50.774Z,17.20
2023-01-13T14:47:28.630Z,14.50
2023-01-13T14:50:01.724Z,16.30
2023-01-13T14:52:37.617Z,13.10
2023-01-13T14:55:08.828Z,11.90
2023-01-13T14:57:38.878Z,13.80
2023-01-13T15:00:15.073Z,10.90
2023-01-13T15:02:48.460Z,22.10
2023-01-13T15:05:18.595Z,16.40
2023-01-13T15:07:50.052Z,13.60
2023-01-13T15:10:18.014Z,15.70
2023-01-13T15:12:49.668Z,19.40
2023-01-13T15:15:27.643Z,14.80
2023-01-13T15:17:54.560Z,35.60
2023-01-13T15:20:22.583Z,15.60
2023-01-13T15:22:49.971Z,14.30
2023-01-13T15:25:17.359Z,17.50
2023-01-13T15:27:44.844Z,17.50
2023-01-13T15:30:21.858Z,14.60
2023-01-13T15:32:49.183Z,23.60
2023-01-13T15:35:16.689Z,14.30
2023-01-13T15:37:44.143Z,11.70
2023-01-13T15:40:19.482Z,18.90
2023-01-13T15:43:05.263Z,13.90
2023-01-13T15:45:51.245Z,16.80
2023-01-13T15:48:20.221Z,16.50
2023-01-13T15:50:47.044Z,20.40
2023-01-13T15:53:14.483Z,15.40
2023-01-13T15:55:42.737Z,21.90
2023-01-13T15:58:11.508Z,20.40
2023-01-13T16:00:38.494Z,13.20
2023-01-13T16:03:05.719Z,23.70
2023-01-13T16:05:32.582Z,20.00
2023-01-13T16:07:59.367Z,18.00
2023-01-13T16:10:27.100Z,28.00
2023-01-13T16:12:55.318Z,15.30
2023-01-13T16:15:22.233Z,22.00
2023-01-13T16:17:55.940Z,17.90
2023-01-13T16:20:22.790Z,19.60
2023-01-13T16:22:49.895Z,18.20
2023-01-13T16:25:18.954Z,16.60
2023-01-13T16:27:46.012Z,20.00
2023-01-13T16:30:28.607Z,22.20
2023-01-13T16:32:55.571Z,18.40
2023-01-13T16:35:22.916Z,18.20
2023-01-13T16:37:50.030Z,17.80
2023-01-13T16:40:26.269Z,19.40
2023-01-13T16:42:53.635Z,31.10
2023-01-13T16:45:20.995Z,24.20
2023-01-13T16:47:47.943Z,23.30
2023-01-13T16:50:23.700Z,20.50
2023-01-13T16:52:50.556Z,17.60
2023-01-13T16:55:17.412Z,21.40
2023-01-13T16:57:44.253Z,19.60
2023-01-13T17:00:12.123Z,15.40
2023-01-13T17:02:38.974Z,19.80
2023-01-13T17:05:07.229Z,16.30
2023-01-13T17:07:34.613Z,19.10
2023-01-13T17:10:01.362Z,12.40
2023-01-13T17:12:28.858Z,20.90
2023-01-13T17:14:57.137Z,25.30
2023-01-13T17:17:26.597Z,21.50
2023-01-13T17:19:53.675Z,19.00
2023-01-13T17:22:21.743Z,19.30
2023-01-13T17:24:49.019Z,18.80
2023-01-13T17:27:18.104Z,20.30
2023-01-13T17:29:45.300Z,21.80
2023-01-13T17:32:17.126Z,21.60
2023-01-13T17:34:44.480Z,22.80
2023-01-13T17:37:14.277Z,24.60
2023-01-13T17:39:43.497Z,21.00
2023-01-13T17:42:10.551Z,21.50
2023-01-13T17:44:37.403Z,30.60
2023-01-13T17:47:04.757Z,20.00
2023-01-13T17:49:31.912Z,17.80
2023-01-13T17:51:58.773Z,23.10
2023-01-13T17:54:25.709Z,28.20
2023-01-13T17:56:52.727Z,23.70
2023-01-13T17:59:19.777Z,22.80
2023-01-13T18:01:50.412Z,15.60
2023-01-13T18:04:21.235Z,19.90
2023-01-13T18:06:48.443Z,30.60
2023-01-13T18:09:15.913Z,22.90
2023-01-13T18:11:43.328Z,28.80
2023-01-13T18:14:10.396Z,19.20
2023-01-13T18:16:38.907Z,21.70
2023-01-13T18:19:24.470Z,27.30
2023-01-13T18:22:11.486Z,27.30
2023-01-13T18:24:57.081Z,36.00
2023-01-13T18:27:28.357Z,28.20
2023-01-13T18:29:57.513Z,31.50
2023-01-13T18:32:28.613Z,30.00
2023-01-13T18:35:05.023Z,41.40
2023-01-13T22:24:57.688Z,40.70
2023-01-13T22:27:26.077Z,35.10
2023-01-13T22:29:53.156Z,39.00
2023-01-13T22:32:20.758Z,46.20
2023-01-13T22:34:48.147Z,46.20
2023-01-13T22:37:15.076Z,53.30
2023-01-13T22:39:42.050Z,36.60
2023-01-13T22:42:10.330Z,51.00
2023-01-13T22:44:37.276Z,48.20
2023-01-13T22:47:04.330Z,50.50
2023-01-13T22:49:31.278Z,50.10
2023-01-13T22:51:58.437Z,37.10
2023-01-13T22:54:25.275Z,37.70
2023-01-13T22:56:52.238Z,38.00
2023-01-13T22:59:19.185Z,36.90
2023-01-13T23:01:46.144Z,36.80
2023-01-13T23:04:14.079Z,41.30
2023-01-13T23:06:41.274Z,38.70
2023-01-13T23:09:08.194Z,33.30
2023-01-13T23:11:35.567Z,38.70
2023-01-13T23:14:04.300Z,36.40
2023-01-13T23:16:32.525Z,31.90
2023-01-13T23:18:59.506Z,34.10
2023-01-13T23:21:29.582Z,34.40
2023-01-13T23:23:58.683Z,42.40
2023-01-13T23:26:26.494Z,35.00
2023-01-13T23:28:53.541Z,33.80
2023-01-13T23:31:21.717Z,46.30
2023-01-13T23:33:48.728Z,49.60
2023-01-13T23:36:17.668Z,44.70
2023-01-13T23:38:44.818Z,31.10
2023-01-13T23:41:16.232Z,39.40
2023-01-13T23:43:43.068Z,37.20
2023-01-13T23:46:11.852Z,33.20
2023-01-13T23:48:39.173Z,38.20
2023-01-13T23:51:08.549Z,30.00
2023-01-13T23:53:39.912Z,34.20
2023-01-13T23:56:08.677Z,33.60
2023-01-13T23:58:35.563Z,44.10
